createdAt,value
2018-12-02T00:02:00.589Z,100601.45
2018-12-02T00:04:30.104Z,100607.77
2018-12-02T00:06:59.593Z,100608.91
2018-12-02T00:09:29.127Z,100602.38
2018-12-02T00:11:58.648Z,100596.03
2018-12-02T00:14:28.234Z,100595.20
2018-12-02T00:16:57.756Z,100607.34
2018-12-02T00:19:27.313Z,100607.98
2018-12-02T00:21:56.874Z,100608.49
2018-12-02T00:24:26.409Z,100606.47
2018-12-02T00:26:55.972Z,100609.78
2018-12-02T00:29:25.576Z,100604.44
2018-12-02T00:31:55.078Z,100601.41
2018-12-02T00:34:24.636Z,100597.72
2018-12-02T00:36:54.125Z,100599.20
2018-12-02T00:39:23.649Z,100593.17
2018-12-02T00:41:53.176Z,100589.81
2018-12-02T00:44:22.694Z,100592.63
2018-12-02T00:46:52.208Z,100582.13
2018-12-02T00:49:21.700Z,100576.10
2018-12-02T00:51:51.256Z,100580.10
2018-12-02T00:54:20.749Z,100569.91
2018-12-02T00:56:50.269Z,100578.77
2018-12-02T00:59:19.793Z,100576.23
2018-12-02T01:01:49.359Z,100569.91
2018-12-02T01:04:18.931Z,100562.77
2018-12-02T01:06:53.418Z,100561.77
2018-12-02T01:09:17.945Z,100561.77
2018-12-02T01:11:47.484Z,100561.44
2018-12-02T01:14:17.005Z,100564.42
2018-12-02T01:16:46.550Z,100564.10
2018-12-02T01:19:16.034Z,100569.44
2018-12-02T01:21:45.541Z,100560.57
2018-12-02T01:24:15.058Z,100558.77
2018-12-02T01:26:44.590Z,100555.73
2018-12-02T01:29:14.081Z,100563.55
2018-12-02T01:31:43.602Z,100560.05
2018-12-02T01:34:13.093Z,100555.69
2018-12-02T01:36:42.624Z,100547.36
2018-12-02T01:39:12.128Z,100552.33
2018-12-02T01:41:41.653Z,100547.64
2018-12-02T01:44:11.140Z,100551.17
2018-12-02T01:46:40.677Z,100546.31
2018-12-02T01:49:10.213Z,100547.17
2018-12-02T01:51:39.745Z,100548.64
2018-12-02T01:54:09.278Z,100547.59
2018-12-02T01:56:38.760Z,100548.59
2018-12-02T01:59:08.306Z,100551.27
2018-12-02T02:01:37.806Z,100546.21
2018-12-02T02:04:07.358Z,100554.85
2018-12-02T02:06:36.873Z,100554.66
2018-12-02T02:09:09.261Z,100548.81
2018-12-02T02:11:39.107Z,100544.59
2018-12-02T02:14:08.645Z,100543.25
2018-12-02T02:16:38.181Z,100555.75
2018-12-02T02:19:07.701Z,100560.95
2018-12-02T02:21:37.220Z,100556.25
2018-12-02T02:24:07.042Z,100555.89
2018-12-02T02:26:36.610Z,100559.56
2018-12-02T02:29:06.472Z,100551.70
2018-12-02T02:31:36.014Z,100550.04
2018-12-02T02:34:05.887Z,100556.01
2018-12-02T02:36:35.381Z,100554.67
2018-12-02T02:39:06.426Z,100559.00
2018-12-02T02:41:35.963Z,100546.81
2018-12-02T02:44:05.649Z,100545.98
2018-12-02T02:46:35.112Z,100545.30
2018-12-02T02:49:04.705Z,100542.27
2018-12-02T02:51:34.193Z,100545.58
2018-12-02T02:54:03.700Z,100547.55
2018-12-02T02:56:33.184Z,100544.69
2018-12-02T02:59:02.832Z,100551.48
2018-12-02T03:01:32.317Z,100544.12
2018-12-02T03:04:01.876Z,100546.10
2018-12-02T03:06:31.368Z,100544.08
2018-12-02T03:09:00.897Z,100545.91
2018-12-02T03:11:30.431Z,100544.72
2018-12-02T03:13:59.934Z,100550.55
2018-12-02T03:16:29.452Z,100549.35
2018-12-02T03:18:58.930Z,100557.01
2018-12-02T03:21:28.472Z,100548.66
2018-12-02T03:23:57.978Z,100552.66
2018-12-02T03:26:27.514Z,100546.35
2018-12-02T03:28:56.989Z,100549.66
2018-12-02T03:31:26.533Z,100555.95
2018-12-02T03:33:56.023Z,100558.14
2018-12-02T03:36:25.546Z,100556.95
2018-12-02T03:38:55.097Z,100553.92
2018-12-02T03:41:24.605Z,100556.59
2018-12-02T03:43:54.133Z,100558.56
2018-12-02T03:46:23.651Z,100559.56
2018-12-02T03:48:53.162Z,100561.72
2018-12-02T03:51:22.779Z,100557.23
2018-12-02T03:53:52.293Z,100555.75
2018-12-02T03:56:21.811Z,100555.62
2018-12-02T03:58:51.336Z,100557.15
2018-12-02T04:01:20.869Z,100552.88
2018-12-02T04:03:50.374Z,100552.88
2018-12-02T04:06:19.921Z,100551.38
2018-12-02T04:08:49.419Z,100544.08
2018-12-02T04:11:18.953Z,100543.80
2018-12-02T04:13:48.445Z,100539.49
2018-12-02T04:16:17.990Z,100543.91
2018-12-02T04:18:47.493Z,100553.93
2018-12-02T04:21:17.047Z,100547.59
2018-12-02T04:23:46.536Z,100541.63
2018-12-02T04:26:16.150Z,100546.31
2018-12-02T04:28:45.633Z,100538.52
2018-12-02T04:31:15.148Z,100536.07
2018-12-02T04:33:44.661Z,100529.59
2018-12-02T04:36:14.153Z,100541.09
2018-12-02T04:38:43.721Z,100538.79
2018-12-02T04:41:13.226Z,100541.09
2018-12-02T04:43:42.754Z,100546.28
2018-12-02T04:46:12.286Z,100548.45
2018-12-02T04:48:41.846Z,100547.11
2018-12-02T04:51:11.373Z,100550.47
2018-12-02T04:53:40.897Z,100552.64
2018-12-02T04:56:10.410Z,100550.80
2018-12-02T04:58:39.909Z,100555.30
2018-12-02T05:01:09.437Z,100555.47
2018-12-02T05:03:38.959Z,100567.47
2018-12-02T05:06:08.468Z,100562.27
2018-12-02T05:08:38.011Z,100565.58
2018-12-02T05:11:07.500Z,100566.73
2018-12-02T05:13:37.016Z,100566.36
2018-12-02T05:16:06.558Z,100572.33
2018-12-02T05:18:36.079Z,100571.78
2018-12-02T05:21:05.732Z,100576.58
2018-12-02T05:23:35.238Z,100580.22
2018-12-02T05:26:04.765Z,100582.50
2018-12-02T05:28:34.344Z,100587.13
2018-12-02T05:31:03.885Z,100585.94
2018-12-02T05:33:33.418Z,100589.10
2018-12-02T05:36:02.915Z,100595.40
2018-12-02T05:38:32.429Z,100601.73
2018-12-02T05:41:01.954Z,100607.05
2018-12-02T05:43:31.494Z,100611.05
2018-12-02T05:46:00.977Z,100604.03
2018-12-02T05:48:30.540Z,100608.89
2018-12-02T05:51:00.008Z,100610.22
2018-12-02T05:53:29.521Z,100620.88
2018-12-02T05:55:59.035Z,100625.71
2018-12-02T05:58:28.602Z,100622.92
2018-12-02T06:00:58.101Z,100624.12
2018-12-02T06:03:27.677Z,100628.25
2018-12-02T06:05:57.169Z,100636.11
2018-12-02T06:08:26.706Z,100629.82
2018-12-02T06:10:56.201Z,100640.81
2018-12-02T06:13:25.718Z,100645.84
2018-12-02T06:15:55.316Z,100635.55
2018-12-02T06:18:24.784Z,100640.58
2018-12-02T06:20:54.680Z,100645.97
2018-12-02T06:23:23.859Z,100648.17
2018-12-02T06:25:53.411Z,100647.20
2018-12-02T06:28:22.907Z,100649.94
2018-12-02T06:30:52.444Z,100647.57
2018-12-02T06:33:21.983Z,100643.70
2018-12-02T06:35:51.572Z,100647.84
2018-12-02T06:38:21.130Z,100652.20
2018-12-02T06:40:50.672Z,100651.47
2018-12-02T06:43:20.157Z,100651.77
2018-12-02T06:45:49.681Z,100647.53
2018-12-02T06:48:19.286Z,100645.50
2018-12-02T06:50:48.760Z,100644.75
2018-12-02T06:53:18.317Z,100648.17
2018-12-02T06:58:55.956Z,100650.69
2018-12-02T07:02:10.520Z,100472.41
2018-12-02T07:04:41.713Z,100655.64
2018-12-02T07:07:11.280Z,100652.86
2018-12-02T07:09:40.785Z,100653.92
2018-12-02T07:12:10.725Z,100644.28
2018-12-02T07:14:40.228Z,100647.36
2018-12-02T07:17:09.744Z,100642.41
2018-12-02T07:19:44.057Z,100647.47
2018-12-02T07:22:19.118Z,100651.30
2018-12-02T07:24:50.693Z,100646.02
2018-12-02T07:27:20.252Z,100637.73
2018-12-02T07:29:49.797Z,100636.14
2018-12-02T07:32:19.365Z,100636.05
2018-12-02T07:34:48.849Z,100643.46
2018-12-02T07:37:19.821Z,100653.54
2018-12-02T07:39:57.277Z,100654.56
2018-12-02T07:42:26.805Z,100662.97
2018-12-02T07:44:56.330Z,100667.02
2018-12-02T07:47:25.813Z,100674.07
2018-12-02T07:49:55.329Z,100669.78
2018-12-02T07:52:24.810Z,100677.84
2018-12-02T07:54:54.337Z,100677.71
2018-12-02T07:57:23.856Z,100674.25
2018-12-02T07:59:53.333Z,100669.64
2018-12-02T08:02:22.863Z,100664.21
2018-12-02T08:04:52.340Z,100658.80
2018-12-02T08:07:21.854Z,100660.72
2018-12-02T08:09:51.393Z,100664.98
2018-12-02T08:12:20.932Z,100670.40
2018-12-02T08:14:50.455Z,100676.79
2018-12-02T08:17:19.992Z,100682.88
2018-12-02T08:19:49.488Z,100691.80
2018-12-02T08:22:19.141Z,100683.69
2018-12-02T08:24:48.641Z,100687.91
2018-12-02T08:27:18.170Z,100685.63
2018-12-02T08:29:47.722Z,100682.45
2018-12-02T08:32:17.236Z,100677.63
2018-12-02T08:34:46.763Z,100615.80
2018-12-02T08:37:16.267Z,100677.22
2018-12-02T08:39:45.813Z,100675.58
2018-12-02T08:42:15.322Z,100682.28
2018-12-02T08:44:44.861Z,100680.97
2018-12-02T08:47:14.360Z,100682.63
2018-12-02T08:49:43.935Z,100676.30
2018-12-02T08:52:13.477Z,100664.11
2018-12-02T08:54:42.998Z,100667.13
2018-12-02T08:57:12.561Z,100659.62
2018-12-02T08:59:42.113Z,100654.61
2018-12-02T09:02:11.648Z,100658.34
2018-12-02T09:04:41.146Z,100648.61
2018-12-02T09:07:10.682Z,100650.81
2018-12-02T09:09:40.193Z,100650.32
2018-12-02T09:12:09.742Z,100650.32
2018-12-02T09:14:39.317Z,100645.97
2018-12-02T09:17:08.888Z,100650.59
2018-12-02T09:19:38.437Z,100645.62
2018-12-02T09:22:07.961Z,100643.27
2018-12-02T09:24:37.507Z,100637.24
2018-12-02T09:27:07.088Z,100640.27
2018-12-02T09:29:36.580Z,100634.92
2018-12-02T09:32:06.542Z,100630.56
2018-12-02T09:34:36.060Z,100621.88
2018-12-02T09:37:05.600Z,100626.90
2018-12-02T09:39:35.102Z,100623.09
2018-12-02T09:42:04.741Z,100617.56
2018-12-02T09:44:34.301Z,100620.09
2018-12-02T09:47:03.843Z,100615.92
2018-12-02T09:49:33.395Z,100611.92
2018-12-02T09:52:02.917Z,100601.02
2018-12-02T09:54:32.469Z,100606.22
2018-12-02T09:57:01.957Z,100593.81
2018-12-02T09:59:31.509Z,100592.83
2018-12-02T10:02:01.032Z,100595.83
2018-12-02T10:04:30.612Z,100589.28
2018-12-02T10:07:00.152Z,100592.98
2018-12-02T10:09:29.646Z,100591.13
2018-12-02T10:11:59.172Z,100584.73
2018-12-02T10:14:28.689Z,100588.27
2018-12-02T10:16:58.181Z,100583.72
2018-12-02T10:19:27.719Z,100574.48
2018-12-02T10:21:57.325Z,100569.63
2018-12-02T10:24:26.801Z,100567.92
2018-12-02T10:26:56.353Z,100566.56
2018-12-02T10:29:25.841Z,100569.91
2018-12-02T10:31:55.458Z,100553.53
2018-12-02T10:34:25.046Z,100557.55
2018-12-02T10:36:54.557Z,100554.51
2018-12-02T10:39:24.104Z,100553.16
2018-12-02T10:41:53.605Z,100548.98
2018-12-02T10:44:23.201Z,100550.30
2018-12-02T10:46:52.729Z,100541.23
2018-12-02T10:49:22.253Z,100539.22
2018-12-02T10:51:51.841Z,100539.71
2018-12-02T10:54:21.358Z,100535.84
2018-12-02T10:56:50.970Z,100535.67
2018-12-02T10:59:20.517Z,100534.31
2018-12-02T11:01:54.124Z,100526.92
2018-12-02T11:04:23.614Z,100517.37
2018-12-02T11:06:53.153Z,100524.23
2018-12-02T11:09:22.641Z,100518.33
2018-12-02T11:11:52.170Z,100520.16
2018-12-02T11:14:21.657Z,100512.77
2018-12-02T11:16:51.190Z,100503.36
2018-12-02T11:19:20.672Z,100504.33
2018-12-02T11:21:50.213Z,100495.77
2018-12-02T11:24:19.692Z,100485.20
2018-12-02T11:26:49.248Z,100487.35
2018-12-02T11:29:18.814Z,100488.01
2018-12-02T11:31:48.381Z,100495.52
2018-12-02T11:34:17.877Z,100481.58
2018-12-02T11:36:47.413Z,100480.38
2018-12-02T11:39:16.889Z,100475.67
2018-12-02T11:41:46.360Z,100472.64
2018-12-02T11:44:15.844Z,100474.13
2018-12-02T11:46:45.375Z,100474.27
2018-12-02T11:49:14.910Z,100469.56
2018-12-02T11:51:44.454Z,100466.88
2018-12-02T11:54:14.001Z,100470.70
2018-12-02T11:56:43.508Z,100463.13
2018-12-02T11:59:13.081Z,100461.27
2018-12-02T12:01:42.560Z,100467.64
2018-12-02T12:04:12.078Z,100462.44
2018-12-02T12:06:41.621Z,100463.09
2018-12-02T12:09:11.182Z,100454.66
2018-12-02T12:11:40.685Z,100450.98
2018-12-02T12:14:10.234Z,100450.28
2018-12-02T12:16:39.720Z,100451.63
2018-12-02T12:19:09.252Z,100448.56
2018-12-02T12:21:38.740Z,100442.67
2018-12-02T12:24:08.299Z,100442.16
2018-12-02T12:26:37.780Z,100441.16
2018-12-02T12:29:07.313Z,100438.03
2018-12-02T12:31:36.814Z,100438.47
2018-12-02T12:34:06.430Z,100439.78
2018-12-02T12:36:35.918Z,100435.89
2018-12-02T12:39:07.917Z,100436.36
2018-12-02T12:41:37.456Z,100433.99
2018-12-02T12:44:09.777Z,100437.67
2018-12-02T12:46:39.281Z,100432.95
2018-12-02T12:49:08.769Z,100432.26
2018-12-02T12:51:39.900Z,100437.63
2018-12-02T12:54:07.809Z,100435.08
2018-12-02T12:56:37.334Z,100427.16
2018-12-02T12:59:06.883Z,100426.46
2018-12-02T13:01:36.410Z,100424.95
2018-12-02T13:04:06.169Z,100426.11
2018-12-02T13:06:35.700Z,100423.22
2018-12-02T13:09:08.590Z,100430.10
2018-12-02T13:11:38.170Z,100427.77
2018-12-02T13:14:07.710Z,100428.93
2018-12-02T13:16:37.333Z,100426.25
2018-12-02T13:19:06.856Z,100424.08
2018-12-02T13:21:36.462Z,100431.11
2018-12-02T13:24:06.121Z,100424.90
2018-12-02T13:26:35.680Z,100425.73
2018-12-02T13:29:05.181Z,100426.42
2018-12-02T13:31:34.704Z,100423.56
2018-12-02T13:34:04.262Z,100426.77
2018-12-02T13:36:33.804Z,100426.77
2018-12-02T13:39:03.841Z,100424.38
2018-12-02T13:41:33.380Z,100420.35
2018-12-02T13:44:02.893Z,100419.70
2018-12-02T13:46:32.386Z,100424.56
2018-12-02T13:49:01.921Z,100419.05
2018-12-02T13:51:31.505Z,100418.53
2018-12-02T13:54:06.136Z,100415.02
2018-12-02T13:56:35.664Z,100424.29
2018-12-02T13:59:05.208Z,100413.72
2018-12-02T14:01:34.737Z,100413.20
2018-12-02T14:04:04.261Z,100412.89
2018-12-02T14:06:33.797Z,100413.58
2018-12-02T14:09:03.499Z,100413.45
2018-12-02T14:11:32.993Z,100409.28
2018-12-02T14:14:02.825Z,100403.74
2018-12-02T14:17:06.866Z,100397.72
2018-12-02T14:19:36.696Z,100400.13
2018-12-02T14:22:06.565Z,100400.83
2018-12-02T14:24:36.088Z,100404.38
2018-12-02T14:27:06.053Z,100403.41
2018-12-02T14:29:37.806Z,100405.97
2018-12-02T14:32:10.640Z,100405.34
2018-12-02T14:34:40.228Z,100401.35
2018-12-02T14:37:09.721Z,100402.39
2018-12-02T14:39:39.249Z,100403.11
2018-12-02T14:42:08.784Z,100406.34
2018-12-02T14:44:38.252Z,100407.89
2018-12-02T14:47:07.880Z,100408.30
2018-12-02T14:49:37.807Z,100406.98
2018-12-02T14:52:07.518Z,100411.88
2018-12-02T14:54:37.006Z,100409.73
2018-12-02T14:57:06.629Z,100406.41
2018-12-02T14:59:36.105Z,100405.47
2018-12-02T15:02:06.036Z,100409.38
2018-12-02T15:04:35.513Z,100413.59
2018-12-02T15:07:05.210Z,100408.11
2018-12-02T15:09:34.712Z,100407.13
2018-12-02T15:12:04.293Z,100412.88
2018-12-02T15:14:33.816Z,100411.41
2018-12-02T15:17:03.364Z,100411.77
2018-12-02T15:19:32.883Z,100411.13
2018-12-02T15:22:02.446Z,100405.80
2018-12-02T15:24:31.985Z,100414.05
2018-12-02T15:27:01.563Z,100405.67
2018-12-02T15:29:31.064Z,100407.54
2018-12-02T15:32:00.636Z,100407.23
2018-12-02T15:34:30.137Z,100411.95
2018-12-02T15:36:59.693Z,100407.94
2018-12-02T15:39:29.214Z,100411.30
2018-12-02T15:41:58.758Z,100412.30
2018-12-02T15:44:28.261Z,100413.33
2018-12-02T15:46:57.856Z,100268.11
2018-12-02T15:49:27.388Z,100419.89
2018-12-02T15:51:56.893Z,100419.73
2018-12-02T15:54:26.447Z,100417.73
2018-12-02T15:56:55.949Z,100419.75
2018-12-02T15:59:25.485Z,100423.41
2018-12-02T16:01:55.053Z,100419.24
2018-12-02T16:04:24.547Z,100417.59
2018-12-02T16:06:54.113Z,100418.92
2018-12-02T16:09:23.653Z,100422.94
2018-12-02T16:11:53.232Z,100431.28
2018-12-02T16:14:22.724Z,100434.47
2018-12-02T16:16:52.967Z,100437.65
2018-12-02T16:19:21.853Z,100435.48
2018-12-02T16:21:51.356Z,100258.83
2018-12-02T16:24:20.873Z,100439.12
2018-12-02T16:26:50.357Z,100440.30
2018-12-02T16:29:19.897Z,100446.15
2018-12-02T16:31:49.401Z,100452.67
2018-12-02T16:34:18.929Z,100448.66
2018-12-02T16:36:48.424Z,100445.46
2018-12-02T16:39:17.980Z,100447.14
2018-12-02T16:41:47.505Z,100451.45
2018-12-02T16:44:17.008Z,100458.66
2018-12-02T16:46:46.554Z,100453.64
2018-12-02T16:49:16.046Z,100451.79
2018-12-02T16:51:45.568Z,100453.79
2018-12-02T16:54:15.078Z,100455.78
2018-12-02T16:56:44.629Z,100326.88
2018-12-02T16:59:18.369Z,100460.09
2018-12-02T17:02:05.324Z,100451.05
2018-12-02T17:04:33.866Z,100459.08
2018-12-02T17:07:03.382Z,100463.07
2018-12-02T17:09:32.904Z,100459.72
2018-12-02T17:12:02.482Z,100461.04
2018-12-02T17:14:32.036Z,100461.38
2018-12-02T17:17:01.528Z,100456.98
2018-12-02T17:19:31.068Z,100455.48
2018-12-02T17:22:00.590Z,100461.48
2018-12-02T17:24:30.183Z,100470.31
2018-12-02T17:26:59.680Z,100472.30
2018-12-02T17:29:29.248Z,100468.95
2018-12-02T17:32:03.069Z,100470.47
2018-12-02T17:34:32.645Z,100474.27
2018-12-02T17:37:02.137Z,100475.94
2018-12-02T17:39:33.205Z,100475.27
2018-12-02T17:42:08.233Z,100350.47
2018-12-02T17:44:37.785Z,100476.58
2018-12-02T17:47:07.609Z,100482.57
2018-12-02T17:49:37.245Z,100484.53
2018-12-02T17:52:07.859Z,100487.20
2018-12-02T17:54:37.407Z,100474.51
2018-12-02T17:57:06.925Z,100475.52
2018-12-02T17:59:36.447Z,100477.16
2018-12-02T18:02:06.409Z,100477.27
2018-12-02T18:04:35.949Z,100490.83
2018-12-02T18:07:05.946Z,100484.42
2018-12-02T18:09:35.489Z,100477.59
2018-12-02T18:12:05.122Z,100477.72
2018-12-02T18:14:34.613Z,100481.72
2018-12-02T18:17:04.197Z,100318.70
2018-12-02T18:19:33.759Z,100487.03
2018-12-02T18:22:03.252Z,100484.19
2018-12-02T18:24:32.750Z,100487.86
2018-12-02T18:27:02.281Z,100489.34
2018-12-02T18:29:31.854Z,100484.30
2018-12-02T18:32:01.373Z,100487.15
2018-12-02T18:34:32.772Z,100480.95
2018-12-02T18:37:02.260Z,100489.13
2018-12-02T18:39:31.809Z,100487.95
2018-12-02T18:42:01.396Z,100482.43
2018-12-02T18:44:30.888Z,100487.91
2018-12-02T18:47:00.433Z,100496.93
2018-12-02T18:49:29.961Z,100498.41
2018-12-02T18:51:59.540Z,100492.89
2018-12-02T18:54:29.069Z,100493.87
2018-12-02T18:56:58.609Z,100490.52
2018-12-02T18:59:28.133Z,100489.83
2018-12-02T19:01:57.639Z,100494.33
2018-12-02T19:04:27.287Z,100494.84
2018-12-02T19:07:07.818Z,100494.16
2018-12-02T19:09:26.397Z,100491.95
2018-12-02T19:11:55.917Z,100493.80
2018-12-02T19:14:25.469Z,100488.13
2018-12-02T19:16:54.966Z,100491.45
2018-12-02T19:19:24.493Z,100492.42
2018-12-02T19:21:54.039Z,100490.77
2018-12-02T19:24:23.560Z,100492.75
2018-12-02T19:26:53.097Z,100495.92
2018-12-02T19:29:22.617Z,100499.06
2018-12-02T19:31:52.112Z,100501.39
2018-12-02T19:34:21.668Z,100497.04
2018-12-02T19:36:55.718Z,100503.38
2018-12-02T19:39:25.248Z,100501.22
2018-12-02T19:41:54.776Z,100499.02
2018-12-02T19:44:24.298Z,100507.02
2018-12-02T19:46:53.842Z,100504.72
2018-12-02T19:49:23.337Z,100500.20
2018-12-02T19:51:52.937Z,100500.39
2018-12-02T19:54:22.453Z,100496.56
2018-12-02T19:56:51.995Z,100506.38
2018-12-02T19:59:21.492Z,100512.07
2018-12-02T20:01:51.006Z,100510.38
2018-12-02T20:04:20.490Z,100507.38
2018-12-02T20:06:50.035Z,100503.02
2018-12-02T20:09:19.602Z,100500.35
2018-12-02T20:11:49.210Z,100497.86
2018-12-02T20:14:18.790Z,100499.67
2018-12-02T20:16:48.272Z,100496.67
2018-12-02T20:19:23.023Z,100494.51
2018-12-02T20:21:52.524Z,100487.48
2018-12-02T20:24:27.070Z,100487.48
2018-12-02T20:26:56.565Z,100484.95
2018-12-02T20:29:26.083Z,100487.80
2018-12-02T20:31:55.572Z,100487.61
2018-12-02T20:34:25.093Z,100487.76
2018-12-02T20:36:54.640Z,100485.88
2018-12-02T20:39:24.137Z,100491.58
2018-12-02T20:41:53.681Z,100487.86
2018-12-02T20:44:23.178Z,100486.20
2018-12-02T20:46:52.753Z,100485.52
2018-12-02T20:49:22.308Z,100482.98
2018-12-02T20:51:51.814Z,100488.47
2018-12-02T20:54:21.358Z,100479.45
2018-12-02T20:56:50.861Z,100484.78
2018-12-02T20:59:20.397Z,100483.09
2018-12-02T21:01:49.944Z,100482.40
2018-12-02T21:04:19.993Z,100490.07
2018-12-02T21:06:49.520Z,100492.38
2018-12-02T21:09:19.093Z,100482.86
2018-12-02T21:11:48.593Z,100482.03
2018-12-02T21:14:18.171Z,100482.36
2018-12-02T21:16:47.744Z,100482.72
2018-12-02T21:19:17.337Z,100483.05
2018-12-02T21:21:46.877Z,100475.22
2018-12-02T21:24:16.409Z,100475.69
2018-12-02T21:26:45.949Z,100470.03
2018-12-02T21:29:15.444Z,100473.67
2018-12-02T21:31:44.984Z,100464.98
2018-12-02T21:34:14.476Z,100465.16
2018-12-02T21:36:44.011Z,100454.64
2018-12-02T21:39:13.504Z,100458.78
2018-12-02T21:41:43.077Z,100451.28
2018-12-02T21:44:12.562Z,100450.59
2018-12-02T21:46:42.102Z,100451.92
2018-12-02T21:49:11.588Z,100449.55
2018-12-02T21:51:41.117Z,100445.22
2018-12-02T21:54:10.658Z,100441.03
2018-12-02T21:56:40.144Z,100437.50
2018-12-02T21:59:09.668Z,100437.82
2018-12-02T22:01:39.165Z,100439.47
2018-12-02T22:04:08.715Z,100432.12
2018-12-02T22:06:38.197Z,100431.57
2018-12-02T22:09:08.852Z,100432.21
2018-12-02T22:11:38.366Z,100431.02
2018-12-02T22:14:07.895Z,100428.72
2018-12-02T22:16:37.417Z,100427.86
2018-12-02T22:19:06.993Z,100430.52
2018-12-02T22:21:36.514Z,100430.52
2018-12-02T22:24:06.242Z,100437.05
2018-12-02T22:26:35.776Z,100441.88
2018-12-02T22:29:05.524Z,100437.05
2018-12-02T22:31:35.028Z,100430.52
2018-12-02T22:34:04.646Z,100439.38
2018-12-02T22:36:34.247Z,100452.70
2018-12-02T22:39:04.287Z,100449.63
2018-12-02T22:41:33.826Z,100456.66
2018-12-02T22:44:03.429Z,100454.82
2018-12-02T22:46:32.953Z,100450.32
2018-12-02T22:49:02.431Z,100444.16
2018-12-02T22:51:31.990Z,100453.13
2018-12-02T22:54:01.537Z,100448.30
2018-12-02T22:56:31.053Z,100456.30
2018-12-02T22:59:00.560Z,100451.33
2018-12-02T23:01:35.197Z,100448.66
2018-12-02T23:04:04.757Z,100435.52
2018-12-02T23:06:34.250Z,100442.05
2018-12-02T23:09:04.048Z,100435.70
2018-12-02T23:11:33.537Z,100428.41
2018-12-02T23:14:03.084Z,100434.42
2018-12-02T23:16:32.618Z,100436.59
2018-12-02T23:19:02.143Z,100434.97
2018-12-02T23:21:31.625Z,100438.95
2018-12-02T23:24:01.149Z,100434.22
2018-12-02T23:26:30.694Z,100433.03
2018-12-02T23:29:00.236Z,100435.74
2018-12-02T23:31:29.779Z,100425.96
2018-12-02T23:33:59.725Z,100436.67
2018-12-02T23:36:28.858Z,100433.19
2018-12-02T23:38:58.351Z,100440.30
2018-12-02T23:41:27.894Z,100433.00
2018-12-02T23:43:57.400Z,100435.06
2018-12-02T23:46:26.953Z,100427.39
2018-12-02T23:48:56.480Z,100430.52
2018-12-02T23:51:26.028Z,100426.05
2018-12-02T23:53:55.577Z,100451.06
2018-12-02T23:56:25.165Z,100422.24
2018-12-02T23:58:54.629Z,100427.72
